sensor_id;sensor_type;location;lat;lon;timestamp;P1;durP1;ratioP1;P2;durP2;ratioP2
69900;SDS011;57183;50.930;5.406;2023-04-25T00:00:35;15.73;;;3.80;;
69900;SDS011;57183;50.930;5.406;2023-04-25T00:03:01;18.77;;;4.97;;
69900;SDS011;57183;50.930;5.406;2023-04-25T00:05:27;11.07;;;4.07;;
69900;SDS011;57183;50.930;5.406;2023-04-25T00:07:52;10.02;;;3.63;;
69900;SDS011;57183;50.930;5.406;2023-04-25T00:10:19;13.85;;;3.45;;
69900;SDS011;57183;50.930;5.406;2023-04-25T00:12:45;14.40;;;3.72;;
69900;SDS011;57183;50.930;5.406;2023-04-25T00:15:11;18.25;;;4.78;;
69900;SDS011;57183;50.930;5.406;2023-04-25T00:17:37;12.25;;;3.72;;
69900;SDS011;57183;50.930;5.406;2023-04-25T00:20:03;14.35;;;3.20;;
69900;SDS011;57183;50.930;5.406;2023-04-25T00:22:36;18.63;;;5.38;;
69900;SDS011;57183;50.930;5.406;2023-04-25T00:25:05;8.63;;;4.15;;
69900;SDS011;57183;50.930;5.406;2023-04-25T00:27:31;20.80;;;4.43;;
69900;SDS011;57183;50.930;5.406;2023-04-25T00:29:57;13.63;;;3.55;;
69900;SDS011;57183;50.930;5.406;2023-04-25T00:32:23;8.10;;;3.63;;
69900;SDS011;57183;50.930;5.406;2023-04-25T00:34:48;15.77;;;3.85;;
69900;SDS011;57183;50.930;5.406;2023-04-25T00:37:14;13.93;;;4.20;;
69900;SDS011;57183;50.930;5.406;2023-04-25T00:39:40;15.35;;;4.30;;
69900;SDS011;57183;50.930;5.406;2023-04-25T00:42:06;9.82;;;3.90;;
69900;SDS011;57183;50.930;5.406;2023-04-25T00:44:33;13.57;;;3.60;;
69900;SDS011;57183;50.930;5.406;2023-04-25T00:47:01;8.90;;;3.70;;
69900;SDS011;57183;50.930;5.406;2023-04-25T00:49:27;12.15;;;4.07;;
69900;SDS011;57183;50.930;5.406;2023-04-25T00:51:53;14.48;;;4.18;;
69900;SDS011;57183;50.930;5.406;2023-04-25T00:54:19;12.00;;;3.72;;
69900;SDS011;57183;50.930;5.406;2023-04-25T00:56:45;8.45;;;3.70;;
69900;SDS011;57183;50.930;5.406;2023-04-25T00:59:11;11.07;;;3.47;;
69900;SDS011;57183;50.930;5.406;2023-04-25T01:01:38;10.20;;;3.75;;
69900;SDS011;57183;50.930;5.406;2023-04-25T01:04:04;6.50;;;3.10;;
69900;SDS011;57183;50.930;5.406;2023-04-25T01:06:30;12.00;;;3.67;;
69900;SDS011;57183;50.930;5.406;2023-04-25T01:08:56;18.45;;;4.45;;
69900;SDS011;57183;50.930;5.406;2023-04-25T01:11:23;12.38;;;3.65;;
69900;SDS011;57183;50.930;5.406;2023-04-25T01:13:50;11.30;;;4.40;;
69900;SDS011;57183;50.930;5.406;2023-04-25T01:16:16;18.15;;;4.68;;
69900;SDS011;57183;50.930;5.406;2023-04-25T01:18:42;13.77;;;5.07;;
69900;SDS011;57183;50.930;5.406;2023-04-25T01:21:09;12.38;;;4.07;;
69900;SDS011;57183;50.930;5.406;2023-04-25T01:23:37;14.45;;;5.75;;
69900;SDS011;57183;50.930;5.406;2023-04-25T01:26:04;13.43;;;4.05;;
69900;SDS011;57183;50.930;5.406;2023-04-25T01:28:32;16.40;;;3.85;;
69900;SDS011;57183;50.930;5.406;2023-04-25T01:30:59;9.60;;;4.10;;
69900;SDS011;57183;50.930;5.406;2023-04-25T01:33:25;12.18;;;3.38;;
69900;SDS011;57183;50.930;5.406;2023-04-25T01:35:51;18.02;;;3.85;;
69900;SDS011;57183;50.930;5.406;2023-04-25T01:38:17;16.92;;;4.93;;
69900;SDS011;57183;50.930;5.406;2023-04-25T01:40:42;13.57;;;3.50;;
69900;SDS011;57183;50.930;5.406;2023-04-25T01:43:10;11.70;;;3.05;;
69900;SDS011;57183;50.930;5.406;2023-04-25T01:45:40;11.68;;;3.95;;
69900;SDS011;57183;50.930;5.406;2023-04-25T01:48:10;14.35;;;3.78;;
69900;SDS011;57183;50.930;5.406;2023-04-25T01:50:38;7.95;;;3.70;;
69900;SDS011;57183;50.930;5.406;2023-04-25T01:53:04;11.50;;;3.67;;
69900;SDS011;57183;50.930;5.406;2023-04-25T01:55:30;13.52;;;4.03;;
69900;SDS011;57183;50.930;5.406;2023-04-25T01:57:56;15.82;;;3.97;;
69900;SDS011;57183;50.930;5.406;2023-04-25T02:00:22;13.80;;;4.75;;
69900;SDS011;57183;50.930;5.406;2023-04-25T02:02:47;13.93;;;3.45;;
69900;SDS011;57183;50.930;5.406;2023-04-25T02:05:15;13.40;;;3.67;;
69900;SDS011;57183;50.930;5.406;2023-04-25T02:07:41;15.98;;;4.40;;
69900;SDS011;57183;50.930;5.406;2023-04-25T02:10:07;11.82;;;3.72;;
69900;SDS011;57183;50.930;5.406;2023-04-25T02:12:35;12.52;;;3.90;;
69900;SDS011;57183;50.930;5.406;2023-04-25T02:15:01;14.95;;;5.93;;
69900;SDS011;57183;50.930;5.406;2023-04-25T02:17:27;9.30;;;3.80;;
69900;SDS011;57183;50.930;5.406;2023-04-25T02:19:53;12.70;;;5.05;;
69900;SDS011;57183;50.930;5.406;2023-04-25T02:22:19;11.70;;;3.67;;
69900;SDS011;57183;50.930;5.406;2023-04-25T02:24:45;13.77;;;4.13;;
69900;SDS011;57183;50.930;5.406;2023-04-25T02:27:11;11.40;;;3.72;;
69900;SDS011;57183;50.930;5.406;2023-04-25T02:29:37;17.77;;;4.05;;
69900;SDS011;57183;50.930;5.406;2023-04-25T02:32:03;17.95;;;5.85;;
69900;SDS011;57183;50.930;5.406;2023-04-25T02:34:29;6.28;;;3.67;;
69900;SDS011;57183;50.930;5.406;2023-04-25T02:36:55;14.57;;;4.20;;
69900;SDS011;57183;50.930;5.406;2023-04-25T02:39:23;11.80;;;4.03;;
69900;SDS011;57183;50.930;5.406;2023-04-25T02:41:50;12.80;;;3.10;;
69900;SDS011;57183;50.930;5.406;2023-04-25T02:44:16;13.73;;;5.85;;
69900;SDS011;57183;50.930;5.406;2023-04-25T02:46:42;11.68;;;4.10;;
69900;SDS011;57183;50.930;5.406;2023-04-25T02:49:07;12.65;;;4.03;;
69900;SDS011;57183;50.930;5.406;2023-04-25T02:51:33;17.25;;;4.03;;
69900;SDS011;57183;50.930;5.406;2023-04-25T02:53:59;23.63;;;5.05;;
69900;SDS011;57183;50.930;5.406;2023-04-25T02:56:26;13.20;;;4.10;;
69900;SDS011;57183;50.930;5.406;2023-04-25T02:58:52;20.30;;;4.45;;
69900;SDS011;57183;50.930;5.406;2023-04-25T03:01:18;15.20;;;4.70;;
69900;SDS011;57183;50.930;5.406;2023-04-25T03:03:43;14.73;;;4.63;;
69900;SDS011;57183;50.930;5.406;2023-04-25T03:06:09;11.45;;;4.18;;
69900;SDS011;57183;50.930;5.406;2023-04-25T03:08:35;11.57;;;3.67;;
69900;SDS011;57183;50.930;5.406;2023-04-25T03:11:00;14.80;;;4.07;;
69900;SDS011;57183;50.930;5.406;2023-04-25T03:13:26;16.10;;;4.25;;
69900;SDS011;57183;50.930;5.406;2023-04-25T03:15:54;13.65;;;4.78;;
69900;SDS011;57183;50.930;5.406;2023-04-25T03:18:20;18.08;;;4.38;;
69900;SDS011;57183;50.930;5.406;2023-04-25T03:20:46;21.17;;;4.72;;
69900;SDS011;57183;50.930;5.406;2023-04-25T03:23:11;11.25;;;4.28;;
69900;SDS011;57183;50.930;5.406;2023-04-25T03:25:37;12.45;;;4.25;;
69900;SDS011;57183;50.930;5.406;2023-04-25T03:28:02;15.35;;;4.35;;
69900;SDS011;57183;50.930;5.406;2023-04-25T03:30:28;14.25;;;6.03;;
69900;SDS011;57183;50.930;5.406;2023-04-25T03:32:54;15.02;;;5.35;;
69900;SDS011;57183;50.930;5.406;2023-04-25T03:35:20;14.73;;;4.78;;
69900;SDS011;57183;50.930;5.406;2023-04-25T03:37:46;13.80;;;4.78;;
69900;SDS011;57183;50.930;5.406;2023-04-25T03:40:11;15.55;;;4.53;;
69900;SDS011;57183;50.930;5.406;2023-04-25T03:42:37;13.25;;;4.82;;
69900;SDS011;57183;50.930;5.406;2023-04-25T03:45:03;18.77;;;5.88;;
69900;SDS011;57183;50.930;5.406;2023-04-25T03:47:29;18.83;;;5.30;;
69900;SDS011;57183;50.930;5.406;2023-04-25T03:49:55;12.40;;;5.10;;
69900;SDS011;57183;50.930;5.406;2023-04-25T03:52:20;12.18;;;3.80;;
69900;SDS011;57183;50.930;5.406;2023-04-25T03:54:46;13.25;;;4.30;;
69900;SDS011;57183;50.930;5.406;2023-04-25T03:57:12;12.38;;;4.78;;
69900;SDS011;57183;50.930;5.406;2023-04-25T03:59:37;15.88;;;4.75;;
69900;SDS011;57183;50.930;5.406;2023-04-25T04:02:03;13.38;;;4.60;;
69900;SDS011;57183;50.930;5.406;2023-04-25T04:04:29;20.02;;;5.82;;
69900;SDS011;57183;50.930;5.406;2023-04-25T04:06:55;13.95;;;4.43;;
69900;SDS011;57183;50.930;5.406;2023-04-25T04:09:21;12.10;;;3.97;;
69900;SDS011;57183;50.930;5.406;2023-04-25T04:11:46;17.33;;;4.63;;
69900;SDS011;57183;50.930;5.406;2023-04-25T04:14:12;13.73;;;6.45;;
69900;SDS011;57183;50.930;5.406;2023-04-25T04:16:38;10.70;;;5.22;;
69900;SDS011;57183;50.930;5.406;2023-04-25T04:19:04;17.55;;;5.88;;
69900;SDS011;57183;50.930;5.406;2023-04-25T04:21:29;14.68;;;6.43;;
69900;SDS011;57183;50.930;5.406;2023-04-25T04:23:55;21.02;;;7.10;;
69900;SDS011;57183;50.930;5.406;2023-04-25T04:26:22;15.45;;;5.75;;
69900;SDS011;57183;50.930;5.406;2023-04-25T04:28:51;13.90;;;5.60;;
69900;SDS011;57183;50.930;5.406;2023-04-25T04:31:21;15.65;;;5.47;;
69900;SDS011;57183;50.930;5.406;2023-04-25T04:33:47;13.00;;;5.25;;
69900;SDS011;57183;50.930;5.406;2023-04-25T04:36:13;17.65;;;7.07;;
69900;SDS011;57183;50.930;5.406;2023-04-25T04:38:39;14.45;;;5.45;;
69900;SDS011;57183;50.930;5.406;2023-04-25T04:41:07;14.38;;;5.82;;
69900;SDS011;57183;50.930;5.406;2023-04-25T04:43:35;14.27;;;5.03;;
69900;SDS011;57183;50.930;5.406;2023-04-25T04:46:01;16.27;;;4.35;;
69900;SDS011;57183;50.930;5.406;2023-04-25T04:48:32;10.10;;;4.28;;
69900;SDS011;57183;50.930;5.406;2023-04-25T04:51:00;15.60;;;5.18;;
69900;SDS011;57183;50.930;5.406;2023-04-25T04:53:26;14.93;;;4.20;;
69900;SDS011;57183;50.930;5.406;2023-04-25T04:55:52;15.57;;;4.28;;
69900;SDS011;57183;50.930;5.406;2023-04-25T04:58:18;18.27;;;5.57;;
69900;SDS011;57183;50.930;5.406;2023-04-25T05:00:45;9.68;;;3.83;;
69900;SDS011;57183;50.930;5.406;2023-04-25T05:03:11;11.38;;;3.47;;
69900;SDS011;57183;50.930;5.406;2023-04-25T05:05:37;12.65;;;4.35;;
69900;SDS011;57183;50.930;5.406;2023-04-25T05:08:05;12.30;;;3.80;;
69900;SDS011;57183;50.930;5.406;2023-04-25T05:10:31;20.05;;;3.92;;
69900;SDS011;57183;50.930;5.406;2023-04-25T05:12:57;14.20;;;3.85;;
69900;SDS011;57183;50.930;5.406;2023-04-25T05:15:22;12.95;;;3.03;;
69900;SDS011;57183;50.930;5.406;2023-04-25T05:17:48;17.15;;;5.68;;
69900;SDS011;57183;50.930;5.406;2023-04-25T05:20:14;13.40;;;3.10;;
69900;SDS011;57183;50.930;5.406;2023-04-25T05:22:40;10.48;;;3.03;;
69900;SDS011;57183;50.930;5.406;2023-04-25T05:25:06;10.15;;;3.08;;
69900;SDS011;57183;50.930;5.406;2023-04-25T05:27:33;6.40;;;3.03;;
69900;SDS011;57183;50.930;5.406;2023-04-25T05:29:59;13.80;;;3.33;;
69900;SDS011;57183;50.930;5.406;2023-04-25T05:32:25;11.38;;;4.28;;
69900;SDS011;57183;50.930;5.406;2023-04-25T05:34:51;11.13;;;2.78;;
69900;SDS011;57183;50.930;5.406;2023-04-25T05:37:17;7.90;;;3.63;;
69900;SDS011;57183;50.930;5.406;2023-04-25T05:39:42;8.02;;;3.40;;
69900;SDS011;57183;50.930;5.406;2023-04-25T05:42:08;12.52;;;3.63;;
69900;SDS011;57183;50.930;5.406;2023-04-25T05:44:34;11.15;;;3.58;;
69900;SDS011;57183;50.930;5.406;2023-04-25T05:46:59;11.60;;;3.22;;
69900;SDS011;57183;50.930;5.406;2023-04-25T05:49:25;14.15;;;3.08;;
69900;SDS011;57183;50.930;5.406;2023-04-25T05:51:51;13.13;;;3.33;;
69900;SDS011;57183;50.930;5.406;2023-04-25T05:54:16;13.20;;;2.72;;
69900;SDS011;57183;50.930;5.406;2023-04-25T05:56:42;10.55;;;3.55;;
69900;SDS011;57183;50.930;5.406;2023-04-25T05:59:08;10.50;;;3.03;;
69900;SDS011;57183;50.930;5.406;2023-04-25T06:01:33;14.00;;;3.00;;
69900;SDS011;57183;50.930;5.406;2023-04-25T06:03:59;5.88;;;3.33;;
69900;SDS011;57183;50.930;5.406;2023-04-25T06:06:25;15.38;;;3.58;;
69900;SDS011;57183;50.930;5.406;2023-04-25T06:08:51;8.05;;;3.35;;
69900;SDS011;57183;50.930;5.406;2023-04-25T06:11:17;17.60;;;3.53;;
69900;SDS011;57183;50.930;5.406;2023-04-25T06:13:43;12.65;;;3.63;;
69900;SDS011;57183;50.930;5.406;2023-04-25T06:16:09;12.32;;;3.78;;
69900;SDS011;57183;50.930;5.406;2023-04-25T06:18:35;12.55;;;3.28;;
69900;SDS011;57183;50.930;5.406;2023-04-25T06:21:00;8.13;;;2.78;;
69900;SDS011;57183;50.930;5.406;2023-04-25T06:23:26;11.25;;;3.22;;
69900;SDS011;57183;50.930;5.406;2023-04-25T06:25:52;11.50;;;3.95;;
69900;SDS011;57183;50.930;5.406;2023-04-25T06:28:17;16.25;;;3.75;;
69900;SDS011;57183;50.930;5.406;2023-04-25T06:30:44;14.00;;;3.30;;
69900;SDS011;57183;50.930;5.406;2023-04-25T06:33:10;14.63;;;4.25;;
69900;SDS011;57183;50.930;5.406;2023-04-25T06:35:35;9.77;;;3.40;;
69900;SDS011;57183;50.930;5.406;2023-04-25T06:38:01;8.48;;;3.15;;
69900;SDS011;57183;50.930;5.406;2023-04-25T06:40:27;10.20;;;3.00;;
69900;SDS011;57183;50.930;5.406;2023-04-25T06:42:52;17.95;;;4.53;;
69900;SDS011;57183;50.930;5.406;2023-04-25T06:45:18;14.73;;;3.53;;
69900;SDS011;57183;50.930;5.406;2023-04-25T06:47:43;10.95;;;3.42;;
69900;SDS011;57183;50.930;5.406;2023-04-25T06:50:09;10.43;;;2.80;;
69900;SDS011;57183;50.930;5.406;2023-04-25T06:52:35;13.13;;;4.03;;
69900;SDS011;57183;50.930;5.406;2023-04-25T06:55:01;15.43;;;3.53;;
69900;SDS011;57183;50.930;5.406;2023-04-25T06:57:27;14.77;;;3.70;;
69900;SDS011;57183;50.930;5.406;2023-04-25T06:59:53;11.43;;;2.65;;
69900;SDS011;57183;50.930;5.406;2023-04-25T07:02:19;14.95;;;3.72;;
69900;SDS011;57183;50.930;5.406;2023-04-25T07:04:46;9.98;;;2.95;;
69900;SDS011;57183;50.930;5.406;2023-04-25T07:07:12;18.17;;;4.18;;
69900;SDS011;57183;50.930;5.406;2023-04-25T07:09:37;10.80;;;2.85;;
69900;SDS011;57183;50.930;5.406;2023-04-25T07:12:03;8.50;;;3.13;;
69900;SDS011;57183;50.930;5.406;2023-04-25T07:14:29;11.95;;;3.58;;
69900;SDS011;57183;50.930;5.406;2023-04-25T07:16:55;14.55;;;3.72;;
69900;SDS011;57183;50.930;5.406;2023-04-25T07:19:21;14.88;;;4.68;;
69900;SDS011;57183;50.930;5.406;2023-04-25T07:21:49;13.07;;;3.72;;
69900;SDS011;57183;50.930;5.406;2023-04-25T07:24:14;8.02;;;3.30;;
69900;SDS011;57183;50.930;5.406;2023-04-25T07:26:40;5.15;;;2.80;;
69900;SDS011;57183;50.930;5.406;2023-04-25T07:29:06;12.73;;;3.97;;
69900;SDS011;57183;50.930;5.406;2023-04-25T07:31:31;22.90;;;4.93;;
69900;SDS011;57183;50.930;5.406;2023-04-25T07:33:57;9.10;;;3.30;;
69900;SDS011;57183;50.930;5.406;2023-04-25T07:36:23;16.30;;;3.35;;
69900;SDS011;57183;50.930;5.406;2023-04-25T07:38:48;12.05;;;3.30;;
69900;SDS011;57183;50.930;5.406;2023-04-25T07:41:14;10.15;;;3.95;;
69900;SDS011;57183;50.930;5.406;2023-04-25T07:43:40;14.27;;;4.70;;
69900;SDS011;57183;50.930;5.406;2023-04-25T07:46:05;14.10;;;3.00;;
69900;SDS011;57183;50.930;5.406;2023-04-25T07:48:31;14.70;;;4.15;;
69900;SDS011;57183;50.930;5.406;2023-04-25T07:50:57;6.78;;;2.92;;
69900;SDS011;57183;50.930;5.406;2023-04-25T07:53:22;12.45;;;2.63;;
69900;SDS011;57183;50.930;5.406;2023-04-25T07:55:48;10.82;;;4.05;;
69900;SDS011;57183;50.930;5.406;2023-04-25T07:58:13;12.73;;;2.88;;
69900;SDS011;57183;50.930;5.406;2023-04-25T08:00:40;20.08;;;4.60;;
69900;SDS011;57183;50.930;5.406;2023-04-25T08:03:06;9.25;;;2.80;;
69900;SDS011;57183;50.930;5.406;2023-04-25T08:05:33;7.50;;;1.92;;
69900;SDS011;57183;50.930;5.406;2023-04-25T08:07:59;11.90;;;3.13;;
69900;SDS011;57183;50.930;5.406;2023-04-25T08:10:25;6.97;;;1.50;;
69900;SDS011;57183;50.930;5.406;2023-04-25T08:12:51;7.10;;;1.65;;
69900;SDS011;57183;50.930;5.406;2023-04-25T08:15:17;8.52;;;2.58;;
69900;SDS011;57183;50.930;5.406;2023-04-25T08:17:42;12.85;;;2.45;;
69900;SDS011;57183;50.930;5.406;2023-04-25T08:20:09;9.35;;;2.10;;
69900;SDS011;57183;50.930;5.406;2023-04-25T08:22:35;7.20;;;1.98;;
69900;SDS011;57183;50.930;5.406;2023-04-25T08:25:01;10.82;;;2.17;;
69900;SDS011;57183;50.930;5.406;2023-04-25T08:27:27;8.98;;;1.77;;
69900;SDS011;57183;50.930;5.406;2023-04-25T08:29:52;5.30;;;1.65;;
69900;SDS011;57183;50.930;5.406;2023-04-25T08:32:18;5.72;;;1.90;;
69900;SDS011;57183;50.930;5.406;2023-04-25T08:34:45;12.40;;;2.90;;
69900;SDS011;57183;50.930;5.406;2023-04-25T08:37:11;5.15;;;1.45;;
69900;SDS011;57183;50.930;5.406;2023-04-25T08:39:37;6.15;;;1.80;;
69900;SDS011;57183;50.930;5.406;2023-04-25T08:42:05;3.58;;;1.42;;
69900;SDS011;57183;50.930;5.406;2023-04-25T08:44:35;4.60;;;1.80;;
69900;SDS011;57183;50.930;5.406;2023-04-25T08:47:02;6.85;;;2.22;;
69900;SDS011;57183;50.930;5.406;2023-04-25T08:49:31;6.00;;;1.85;;
69900;SDS011;57183;50.930;5.406;2023-04-25T08:52:02;7.05;;;1.33;;
69900;SDS011;57183;50.930;5.406;2023-04-25T08:54:31;9.32;;;1.83;;
69900;SDS011;57183;50.930;5.406;2023-04-25T08:56:57;7.07;;;1.92;;
69900;SDS011;57183;50.930;5.406;2023-04-25T08:59:27;5.13;;;1.77;;
69900;SDS011;57183;50.930;5.406;2023-04-25T09:01:53;4.05;;;1.35;;
69900;SDS011;57183;50.930;5.406;2023-04-25T09:04:20;6.95;;;1.50;;
69900;SDS011;57183;50.930;5.406;2023-04-25T09:06:46;5.43;;;2.03;;
69900;SDS011;57183;50.930;5.406;2023-04-25T09:09:12;6.85;;;2.13;;
69900;SDS011;57183;50.930;5.406;2023-04-25T09:11:38;6.05;;;2.05;;
69900;SDS011;57183;50.930;5.406;2023-04-25T09:14:15;12.80;;;2.67;;
69900;SDS011;57183;50.930;5.406;2023-04-25T09:19:21;6.93;;;3.05;;
69900;SDS011;57183;50.930;5.406;2023-04-25T09:26:59;9.68;;;3.35;;
69900;SDS011;57183;50.930;5.406;2023-04-25T09:29:33;8.43;;;2.90;;
69900;SDS011;57183;50.930;5.406;2023-04-25T09:32:14;10.82;;;3.65;;
69900;SDS011;57183;50.930;5.406;2023-04-25T09:34:54;7.85;;;2.80;;
69900;SDS011;57183;50.930;5.406;2023-04-25T09:37:22;10.35;;;3.08;;
69900;SDS011;57183;50.930;5.406;2023-04-25T09:39:48;5.20;;;2.20;;
69900;SDS011;57183;50.930;5.406;2023-04-25T09:42:15;9.55;;;2.17;;
69900;SDS011;57183;50.930;5.406;2023-04-25T09:44:42;10.20;;;3.03;;
69900;SDS011;57183;50.930;5.406;2023-04-25T09:47:15;10.45;;;2.10;;
69900;SDS011;57183;50.930;5.406;2023-04-25T09:49:46;10.65;;;2.03;;
69900;SDS011;57183;50.930;5.406;2023-04-25T09:52:16;8.27;;;2.45;;
69900;SDS011;57183;50.930;5.406;2023-04-25T09:54:45;3.53;;;1.58;;
69900;SDS011;57183;50.930;5.406;2023-04-25T09:57:15;4.30;;;1.60;;
69900;SDS011;57183;50.930;5.406;2023-04-25T09:59:43;9.07;;;2.03;;
69900;SDS011;57183;50.930;5.406;2023-04-25T10:02:10;5.88;;;1.55;;
69900;SDS011;57183;50.930;5.406;2023-04-25T10:04:36;5.32;;;1.60;;
69900;SDS011;57183;50.930;5.406;2023-04-25T10:07:07;7.40;;;1.67;;
69900;SDS011;57183;50.930;5.406;2023-04-25T10:09:34;3.88;;;1.85;;
69900;SDS011;57183;50.930;5.406;2023-04-25T10:12:04;6.63;;;1.92;;
69900;SDS011;57183;50.930;5.406;2023-04-25T10:14:31;4.55;;;1.80;;
69900;SDS011;57183;50.930;5.406;2023-04-25T10:16:57;5.68;;;1.63;;
69900;SDS011;57183;50.930;5.406;2023-04-25T10:19:24;6.50;;;1.63;;
69900;SDS011;57183;50.930;5.406;2023-04-25T10:21:52;5.30;;;1.27;;
69900;SDS011;57183;50.930;5.406;2023-04-25T10:24:32;5.53;;;2.25;;
69900;SDS011;57183;50.930;5.406;2023-04-25T10:26:58;5.93;;;1.60;;
69900;SDS011;57183;50.930;5.406;2023-04-25T10:29:25;10.20;;;2.58;;
69900;SDS011;57183;50.930;5.406;2023-04-25T10:31:51;6.38;;;1.40;;
69900;SDS011;57183;50.930;5.406;2023-04-25T10:34:17;5.60;;;2.00;;
69900;SDS011;57183;50.930;5.406;2023-04-25T10:36:48;5.35;;;1.60;;
69900;SDS011;57183;50.930;5.406;2023-04-25T10:39:22;7.00;;;2.10;;
69900;SDS011;57183;50.930;5.406;2023-04-25T10:41:56;5.20;;;2.05;;
69900;SDS011;57183;50.930;5.406;2023-04-25T10:44:23;3.78;;;1.92;;
69900;SDS011;57183;50.930;5.406;2023-04-25T10:46:52;10.10;;;4.50;;
69900;SDS011;57183;50.930;5.406;2023-04-25T10:49:32;4.38;;;1.80;;
69900;SDS011;57183;50.930;5.406;2023-04-25T10:54:51;5.85;;;1.63;;
69900;SDS011;57183;50.930;5.406;2023-04-25T10:57:26;7.45;;;3.15;;
69900;SDS011;57183;50.930;5.406;2023-04-25T10:59:53;5.35;;;1.50;;
69900;SDS011;57183;50.930;5.406;2023-04-25T11:02:19;7.15;;;1.98;;
69900;SDS011;57183;50.930;5.406;2023-04-25T11:04:45;4.55;;;2.08;;
69900;SDS011;57183;50.930;5.406;2023-04-25T11:07:13;5.05;;;1.20;;
69900;SDS011;57183;50.930;5.406;2023-04-25T11:10:03;2.67;;;1.30;;
69900;SDS011;57183;50.930;5.406;2023-04-25T11:12:30;8.00;;;2.33;;
69900;SDS011;57183;50.930;5.406;2023-04-25T11:15:03;2.75;;;0.80;;
69900;SDS011;57183;50.930;5.406;2023-04-25T11:17:32;6.30;;;1.23;;
69900;SDS011;57183;50.930;5.406;2023-04-25T11:19:58;6.60;;;0.90;;
69900;SDS011;57183;50.930;5.406;2023-04-25T11:22:26;3.15;;;1.20;;
69900;SDS011;57183;50.930;5.406;2023-04-25T11:24:53;3.03;;;0.98;;
69900;SDS011;57183;50.930;5.406;2023-04-25T11:27:20;2.65;;;0.73;;
69900;SDS011;57183;50.930;5.406;2023-04-25T11:29:46;4.82;;;0.85;;
69900;SDS011;57183;50.930;5.406;2023-04-25T11:32:15;3.00;;;0.80;;
69900;SDS011;57183;50.930;5.406;2023-04-25T11:34:42;2.13;;;0.88;;
69900;SDS011;57183;50.930;5.406;2023-04-25T11:37:10;2.67;;;0.88;;
69900;SDS011;57183;50.930;5.406;2023-04-25T11:39:37;5.63;;;0.85;;
69900;SDS011;57183;50.930;5.406;2023-04-25T11:42:03;3.33;;;0.80;;
69900;SDS011;57183;50.930;5.406;2023-04-25T11:44:30;4.80;;;0.95;;
69900;SDS011;57183;50.930;5.406;2023-04-25T11:46:56;7.45;;;1.10;;
69900;SDS011;57183;50.930;5.406;2023-04-25T11:49:22;3.50;;;0.60;;
69900;SDS011;57183;50.930;5.406;2023-04-25T11:51:49;4.05;;;0.82;;
69900;SDS011;57183;50.930;5.406;2023-04-25T11:54:15;3.95;;;1.00;;
69900;SDS011;57183;50.930;5.406;2023-04-25T11:56:42;3.97;;;1.70;;
69900;SDS011;57183;50.930;5.406;2023-04-25T11:59:11;6.13;;;0.90;;
69900;SDS011;57183;50.930;5.406;2023-04-25T12:01:38;5.88;;;1.08;;
69900;SDS011;57183;50.930;5.406;2023-04-25T12:04:15;3.38;;;0.77;;
69900;SDS011;57183;50.930;5.406;2023-04-25T12:06:52;2.67;;;0.80;;
69900;SDS011;57183;50.930;5.406;2023-04-25T12:09:29;7.28;;;1.13;;
69900;SDS011;57183;50.930;5.406;2023-04-25T12:11:56;2.78;;;0.90;;
69900;SDS011;57183;50.930;5.406;2023-04-25T12:14:27;3.78;;;0.90;;
69900;SDS011;57183;50.930;5.406;2023-04-25T12:16:56;1.73;;;1.08;;
69900;SDS011;57183;50.930;5.406;2023-04-25T12:19:23;3.53;;;0.88;;
69900;SDS011;57183;50.930;5.406;2023-04-25T12:21:49;6.60;;;0.98;;
69900;SDS011;57183;50.930;5.406;2023-04-25T12:24:17;4.60;;;0.98;;
69900;SDS011;57183;50.930;5.406;2023-04-25T12:26:51;7.20;;;4.77;;
69900;SDS011;57183;50.930;5.406;2023-04-25T12:29:38;2.63;;;1.02;;
69900;SDS011;57183;50.930;5.406;2023-04-25T12:32:04;3.35;;;1.30;;
69900;SDS011;57183;50.930;5.406;2023-04-25T12:34:29;3.08;;;1.25;;
69900;SDS011;57183;50.930;5.406;2023-04-25T12:36:57;2.65;;;1.23;;
69900;SDS011;57183;50.930;5.406;2023-04-25T12:39:23;3.45;;;1.20;;
69900;SDS011;57183;50.930;5.406;2023-04-25T12:41:52;6.82;;;1.50;;
69900;SDS011;57183;50.930;5.406;2023-04-25T12:44:19;5.70;;;1.35;;
69900;SDS011;57183;50.930;5.406;2023-04-25T12:46:46;7.18;;;1.05;;
69900;SDS011;57183;50.930;5.406;2023-04-25T12:49:15;3.10;;;1.02;;
69900;SDS011;57183;50.930;5.406;2023-04-25T12:51:41;5.97;;;1.48;;
69900;SDS011;57183;50.930;5.406;2023-04-25T12:54:07;5.85;;;1.30;;
69900;SDS011;57183;50.930;5.406;2023-04-25T12:56:33;2.65;;;1.33;;
69900;SDS011;57183;50.930;5.406;2023-04-25T12:59:00;4.57;;;1.42;;
69900;SDS011;57183;50.930;5.406;2023-04-25T13:01:27;2.22;;;0.98;;
69900;SDS011;57183;50.930;5.406;2023-04-25T13:03:54;1.90;;;0.95;;
69900;SDS011;57183;50.930;5.406;2023-04-25T13:06:20;2.65;;;0.93;;
69900;SDS011;57183;50.930;5.406;2023-04-25T13:08:46;2.55;;;1.13;;
69900;SDS011;57183;50.930;5.406;2023-04-25T13:11:12;2.55;;;1.10;;
69900;SDS011;57183;50.930;5.406;2023-04-25T13:13:39;4.38;;;1.10;;
69900;SDS011;57183;50.930;5.406;2023-04-25T13:16:05;2.60;;;1.02;;
69900;SDS011;57183;50.930;5.406;2023-04-25T13:18:32;7.68;;;1.23;;
69900;SDS011;57183;50.930;5.406;2023-04-25T13:20:58;2.22;;;0.80;;
69900;SDS011;57183;50.930;5.406;2023-04-25T13:23:25;2.20;;;0.75;;
69900;SDS011;57183;50.930;5.406;2023-04-25T13:25:51;4.97;;;1.08;;
69900;SDS011;57183;50.930;5.406;2023-04-25T13:28:17;4.00;;;0.73;;
69900;SDS011;57183;50.930;5.406;2023-04-25T13:30:43;2.90;;;1.00;;
69900;SDS011;57183;50.930;5.406;2023-04-25T13:33:09;2.60;;;1.33;;
69900;SDS011;57183;50.930;5.406;2023-04-25T13:35:35;5.72;;;1.27;;
69900;SDS011;57183;50.930;5.406;2023-04-25T13:38:02;5.97;;;1.10;;
69900;SDS011;57183;50.930;5.406;2023-04-25T13:40:28;4.65;;;1.00;;
69900;SDS011;57183;50.930;5.406;2023-04-25T13:42:54;3.60;;;1.27;;
69900;SDS011;57183;50.930;5.406;2023-04-25T13:45:20;3.40;;;1.23;;
69900;SDS011;57183;50.930;5.406;2023-04-25T13:47:46;3.75;;;0.80;;
69900;SDS011;57183;50.930;5.406;2023-04-25T13:50:12;3.17;;;0.98;;
69900;SDS011;57183;50.930;5.406;2023-04-25T13:52:38;7.63;;;1.90;;
69900;SDS011;57183;50.930;5.406;2023-04-25T13:55:04;3.20;;;1.42;;
69900;SDS011;57183;50.930;5.406;2023-04-25T13:57:32;3.45;;;0.90;;
69900;SDS011;57183;50.930;5.406;2023-04-25T13:59:58;3.55;;;1.00;;
69900;SDS011;57183;50.930;5.406;2023-04-25T14:02:24;3.60;;;0.95;;
69900;SDS011;57183;50.930;5.406;2023-04-25T14:04:50;4.32;;;1.23;;
69900;SDS011;57183;50.930;5.406;2023-04-25T14:07:16;2.30;;;1.10;;
69900;SDS011;57183;50.930;5.406;2023-04-25T14:09:44;2.67;;;1.38;;
69900;SDS011;57183;50.930;5.406;2023-04-25T14:12:10;4.30;;;1.10;;
69900;SDS011;57183;50.930;5.406;2023-04-25T14:14:36;1.65;;;1.05;;
69900;SDS011;57183;50.930;5.406;2023-04-25T14:17:02;3.72;;;0.93;;
69900;SDS011;57183;50.930;5.406;2023-04-25T14:19:28;4.63;;;0.85;;
69900;SDS011;57183;50.930;5.406;2023-04-25T14:21:54;5.90;;;1.08;;
69900;SDS011;57183;50.930;5.406;2023-04-25T14:24:20;3.58;;;0.88;;
69900;SDS011;57183;50.930;5.406;2023-04-25T14:26:46;1.73;;;0.73;;
69900;SDS011;57183;50.930;5.406;2023-04-25T14:29:11;3.03;;;0.90;;
69900;SDS011;57183;50.930;5.406;2023-04-25T14:31:38;1.90;;;0.88;;
69900;SDS011;57183;50.930;5.406;2023-04-25T14:34:05;3.45;;;0.70;;
69900;SDS011;57183;50.930;5.406;2023-04-25T14:36:31;3.88;;;0.90;;
69900;SDS011;57183;50.930;5.406;2023-04-25T14:38:57;1.45;;;0.63;;
69900;SDS011;57183;50.930;5.406;2023-04-25T14:41:23;4.90;;;1.25;;
69900;SDS011;57183;50.930;5.406;2023-04-25T14:43:50;3.08;;;0.80;;
69900;SDS011;57183;50.930;5.406;2023-04-25T14:46:15;3.13;;;0.70;;
69900;SDS011;57183;50.930;5.406;2023-04-25T14:48:41;3.33;;;0.65;;